createdAt,value
2023-01-08T00:01:25.302Z,8.88
2023-01-08T00:03:52.530Z,9.27
2023-01-08T00:06:23.759Z,9.57
2023-01-08T00:08:51.388Z,8.57
2023-01-08T00:11:18.787Z,9.55
2023-01-08T00:13:46.428Z,8.80
2023-01-08T00:16:16.991Z,9.55
2023-01-08T00:18:45.777Z,9.90
2023-01-08T00:21:13.185Z,9.52
2023-01-08T00:23:40.702Z,8.75
2023-01-08T00:26:10.710Z,9.25
2023-01-08T00:28:38.839Z,9.23
2023-01-08T00:31:07.808Z,9.20
2023-01-08T00:33:36.264Z,9.38
2023-01-08T00:36:09.308Z,8.95
2023-01-08T00:38:36.436Z,8.98
2023-01-08T00:41:04.635Z,10.15
2023-01-08T00:43:34.123Z,9.27
2023-01-08T00:46:01.543Z,9.63
2023-01-08T00:48:28.862Z,9.45
2023-01-08T00:50:56.426Z,9.82
2023-01-08T00:53:24.213Z,9.32
2023-01-08T00:55:51.419Z,9.38
2023-01-08T00:58:18.543Z,9.27
2023-01-08T01:00:45.700Z,9.18
2023-01-08T01:03:12.900Z,9.88
2023-01-08T01:05:40.383Z,9.35
2023-01-08T01:08:07.467Z,9.38
2023-01-08T01:10:34.804Z,9.73
2023-01-08T01:13:02.840Z,10.00
2023-01-08T01:15:29.894Z,9.43
2023-01-08T01:17:57.276Z,9.40
2023-01-08T01:20:24.490Z,9.00
2023-01-08T01:22:51.601Z,9.65
2023-01-08T01:25:18.691Z,9.52
2023-01-08T01:27:46.214Z,9.45
2023-01-08T01:30:13.468Z,9.07
2023-01-08T01:32:40.521Z,9.65
2023-01-08T01:35:08.025Z,9.63
2023-01-08T01:37:35.541Z,9.20
2023-01-08T01:40:03.004Z,9.68
2023-01-08T01:42:44.035Z,9.82
2023-01-08T01:45:22.695Z,9.73
2023-01-08T01:47:56.168Z,9.32
2023-01-08T01:50:47.435Z,9.68
2023-01-08T01:53:30.956Z,8.93
2023-01-08T01:55:59.204Z,9.40
2023-01-08T01:58:29.160Z,9.80
2023-01-08T02:00:58.994Z,9.32
2023-01-08T02:03:30.351Z,9.75
2023-01-08T02:06:03.855Z,9.73
2023-01-08T02:08:48.422Z,10.35
2023-01-08T02:11:43.212Z,9.52
2023-01-08T02:14:22.324Z,10.05
2023-01-08T02:17:01.140Z,9.80
2023-01-08T02:19:51.700Z,10.10
2023-01-08T02:22:55.346Z,9.60
2023-01-08T02:25:22.687Z,9.20
2023-01-08T02:27:53.983Z,9.70
2023-01-08T02:30:21.169Z,9.85
2023-01-08T02:32:48.421Z,9.80
2023-01-08T02:35:15.443Z,10.20
2023-01-08T02:37:42.858Z,10.40
2023-01-08T02:40:32.463Z,9.63
2023-01-08T02:43:25.404Z,9.88
2023-01-08T02:45:57.485Z,9.43
2023-01-08T02:48:42.150Z,9.60
2023-01-08T02:51:13.542Z,9.30
2023-01-08T02:53:45.437Z,9.48
2023-01-08T02:56:19.616Z,9.00
2023-01-08T02:58:48.601Z,10.00
2023-01-08T03:01:18.238Z,10.05
2023-01-08T03:04:09.557Z,9.10
2023-01-08T03:06:38.554Z,10.30
2023-01-08T03:09:06.415Z,9.85
2023-01-08T03:11:46.323Z,9.85
2023-01-08T03:14:23.517Z,9.93
2023-01-08T03:17:12.575Z,9.63
2023-01-08T03:19:50.162Z,9.93
2023-01-08T03:22:18.472Z,9.70
2023-01-08T03:24:49.682Z,10.27
2023-01-08T03:27:24.952Z,10.18
2023-01-08T03:29:56.040Z,9.68
2023-01-08T03:32:25.548Z,10.23
2023-01-08T03:34:56.548Z,9.90
2023-01-08T03:37:29.821Z,9.68
2023-01-08T03:40:49.479Z,9.98
2023-01-08T03:43:16.609Z,9.85
2023-01-08T03:45:50.582Z,9.52
2023-01-08T03:48:20.637Z,10.75
2023-01-08T03:50:48.084Z,10.02
2023-01-08T03:53:15.531Z,10.02
2023-01-08T03:55:42.899Z,10.38
2023-01-08T03:58:10.485Z,10.35
2023-01-08T04:00:37.887Z,11.32
2023-01-08T04:03:06.007Z,10.73
2023-01-08T04:05:33.397Z,10.30
2023-01-08T04:08:00.577Z,10.43
2023-01-08T04:10:27.856Z,10.40
2023-01-08T04:12:55.005Z,11.63
2023-01-08T04:15:22.251Z,11.25
2023-01-08T04:17:49.356Z,10.25
2023-01-08T04:20:16.627Z,10.15
2023-01-08T04:22:43.822Z,10.23
2023-01-08T04:25:11.419Z,11.02
2023-01-08T04:27:39.597Z,10.25
2023-01-08T04:30:07.420Z,10.65
2023-01-08T04:32:34.689Z,10.82
2023-01-08T04:35:01.817Z,10.57
2023-01-08T04:37:30.145Z,10.05
2023-01-08T04:39:57.246Z,10.07
2023-01-08T04:42:24.413Z,11.48
2023-01-08T04:44:51.515Z,9.82
2023-01-08T04:47:18.766Z,10.93
2023-01-08T04:49:46.001Z,10.77
2023-01-08T04:52:13.083Z,11.35
2023-01-08T04:54:40.130Z,11.50
2023-01-08T04:57:07.454Z,10.82
2023-01-08T04:59:34.545Z,11.02
2023-01-08T05:02:02.081Z,10.80
2023-01-08T05:04:29.361Z,11.32
2023-01-08T05:06:57.489Z,11.80
2023-01-08T05:09:24.629Z,11.77
2023-01-08T05:11:52.151Z,11.60
2023-01-08T05:14:19.243Z,12.23
2023-01-08T05:16:46.372Z,11.80
2023-01-08T05:19:14.195Z,12.30
2023-01-08T05:21:41.331Z,11.85
2023-01-08T05:24:09.569Z,11.73
2023-01-08T05:26:37.100Z,12.27
2023-01-08T05:29:04.523Z,10.70
2023-01-08T05:31:31.909Z,11.55
2023-01-08T05:33:59.631Z,11.38
2023-01-08T05:36:27.519Z,11.45
2023-01-08T05:38:55.286Z,11.50
2023-01-08T05:41:22.661Z,11.35
2023-01-08T05:43:49.714Z,11.60
2023-01-08T05:46:16.963Z,11.40
2023-01-08T05:48:44.069Z,11.63
2023-01-08T05:51:11.439Z,11.45
2023-01-08T05:53:38.960Z,11.02
2023-01-08T05:56:09.395Z,10.82
2023-01-08T05:58:36.934Z,11.77
2023-01-08T06:01:05.952Z,11.32
2023-01-08T06:03:33.332Z,11.02
2023-01-08T06:06:02.090Z,11.35
2023-01-08T06:08:30.891Z,12.55
2023-01-08T06:11:02.785Z,11.25
2023-01-08T06:13:30.358Z,11.80
2023-01-08T06:16:02.838Z,12.77
2023-01-08T06:18:30.542Z,12.60
2023-01-08T06:20:57.689Z,12.05
2023-01-08T06:23:24.950Z,12.57
2023-01-08T06:25:54.162Z,12.40
2023-01-08T06:28:22.141Z,12.52
2023-01-08T06:30:49.678Z,12.07
2023-01-08T06:33:19.593Z,12.02
2023-01-08T06:35:48.023Z,10.63
2023-01-08T06:38:15.149Z,12.05
2023-01-08T06:40:42.456Z,12.25
2023-01-08T06:43:09.520Z,11.55
2023-01-08T06:45:36.721Z,11.52
2023-01-08T06:48:07.265Z,11.88
2023-01-08T06:50:35.308Z,11.73
2023-01-08T06:53:02.452Z,12.65
2023-01-08T06:55:29.628Z,12.02
2023-01-08T06:57:58.661Z,12.18
2023-01-08T07:00:27.448Z,12.10
2023-01-08T07:02:55.078Z,12.40
2023-01-08T07:05:22.907Z,12.13
2023-01-08T07:07:50.434Z,11.98
2023-01-08T07:10:19.908Z,12.48
2023-01-08T07:12:47.997Z,10.93
2023-01-08T07:15:15.474Z,10.52
2023-01-08T07:17:51.999Z,10.20
2023-01-08T07:20:21.924Z,10.43
2023-01-08T07:22:50.695Z,10.50
2023-01-08T07:25:17.820Z,10.73
2023-01-08T07:27:47.950Z,10.82
2023-01-08T07:30:28.899Z,10.43
2023-01-08T07:33:03.710Z,9.45
2023-01-08T07:35:30.946Z,9.75
2023-01-08T07:37:58.142Z,9.38
2023-01-08T07:40:25.253Z,10.23
2023-01-08T07:43:03.747Z,9.70
2023-01-08T07:45:31.388Z,10.20
2023-01-08T07:47:59.387Z,10.57
2023-01-08T07:50:27.908Z,10.10
2023-01-08T07:53:02.197Z,10.70
2023-01-08T07:55:30.551Z,10.25
2023-01-08T07:57:58.294Z,10.65
2023-01-08T08:00:25.884Z,10.90
2023-01-08T08:02:53.283Z,10.55
2023-01-08T08:05:20.429Z,11.48
2023-01-08T08:07:47.662Z,11.50
2023-01-08T08:10:14.803Z,11.93
2023-01-08T08:12:45.644Z,11.18
2023-01-08T08:15:13.220Z,11.57
2023-01-08T08:17:40.670Z,11.55
2023-01-08T08:20:08.344Z,11.15
2023-01-08T08:22:35.548Z,11.32
2023-01-08T08:25:02.681Z,11.27
2023-01-08T08:27:29.985Z,11.73
2023-01-08T08:29:57.062Z,10.40
2023-01-08T08:32:24.264Z,11.10
2023-01-08T08:34:51.393Z,11.00
2023-01-08T08:37:18.625Z,10.50
2023-01-08T08:39:45.837Z,11.00
2023-01-08T08:42:12.920Z,11.52
2023-01-08T08:44:42.634Z,12.40
2023-01-08T08:47:10.947Z,11.68
2023-01-08T08:49:38.200Z,12.15
2023-01-08T08:52:05.530Z,11.68
2023-01-08T08:54:32.608Z,11.07
2023-01-08T08:57:00.067Z,11.27
2023-01-08T08:59:27.104Z,10.98
2023-01-08T09:01:54.427Z,10.50
2023-01-08T09:04:21.669Z,11.05
2023-01-08T09:06:49.242Z,11.77
2023-01-08T09:09:16.578Z,12.25
2023-01-08T09:11:43.968Z,11.85
2023-01-08T09:14:11.262Z,12.10
2023-01-08T09:16:38.528Z,11.68
2023-01-08T09:19:06.689Z,12.10
2023-01-08T09:21:34.010Z,11.57
2023-01-08T09:24:01.238Z,13.70
2023-01-08T09:26:30.052Z,12.48
2023-01-08T09:28:58.831Z,12.65
2023-01-08T09:31:26.912Z,13.13
2023-01-08T09:33:54.131Z,12.70
2023-01-08T09:36:21.243Z,13.30
2023-01-08T09:38:48.475Z,14.13
2023-01-08T09:41:25.494Z,14.10
2023-01-08T09:43:54.841Z,13.38
2023-01-08T09:46:26.295Z,12.77
2023-01-08T09:48:57.763Z,12.95
2023-01-08T09:51:31.370Z,13.45
2023-01-08T09:53:58.914Z,13.77
2023-01-08T09:56:26.848Z,13.27
2023-01-08T09:59:00.170Z,13.00
2023-01-08T10:01:36.148Z,12.65
2023-01-08T10:04:14.852Z,12.32
2023-01-08T10:06:53.763Z,12.35
2023-01-08T10:09:27.183Z,11.32
2023-01-08T10:11:58.423Z,11.95
2023-01-08T10:14:32.121Z,11.05
2023-01-08T10:17:05.821Z,11.75
2023-01-08T10:19:36.729Z,11.90
2023-01-08T10:22:10.122Z,10.85
2023-01-08T10:24:41.676Z,10.98
2023-01-08T10:27:19.167Z,10.90
2023-01-08T10:29:46.722Z,10.63
2023-01-08T10:32:28.965Z,11.07
2023-01-08T10:34:57.765Z,11.32
2023-01-08T10:37:39.296Z,11.55
2023-01-08T10:40:35.177Z,11.70
2023-01-08T10:43:24.718Z,11.50
2023-01-08T10:46:01.574Z,11.55
2023-01-08T10:48:37.708Z,11.30
2023-01-08T10:51:26.273Z,11.35
2023-01-08T10:53:59.766Z,11.57
2023-01-08T10:56:29.473Z,11.20
2023-01-08T10:58:57.056Z,11.52
2023-01-08T11:01:25.287Z,11.30
2023-01-08T11:04:05.247Z,11.23
2023-01-08T11:06:36.908Z,12.38
2023-01-08T11:09:19.908Z,10.95
2023-01-08T11:11:47.115Z,10.75
2023-01-08T11:14:26.963Z,10.95
2023-01-08T11:16:55.151Z,11.13
2023-01-08T11:19:33.641Z,12.20
2023-01-08T11:22:20.400Z,11.95
2023-01-08T11:24:49.744Z,12.07
2023-01-08T11:27:25.162Z,11.15
2023-01-08T11:30:06.187Z,11.15
2023-01-08T11:32:40.649Z,11.50
2023-01-08T11:35:23.443Z,10.45
2023-01-08T11:38:00.026Z,10.52
2023-01-08T11:40:52.340Z,10.43
2023-01-08T11:44:04.279Z,10.63
2023-01-08T11:46:57.689Z,11.20
2023-01-08T11:49:37.098Z,11.02
2023-01-08T11:52:18.303Z,10.85
2023-01-08T11:54:52.668Z,11.20
2023-01-08T11:57:38.010Z,11.07
2023-01-08T12:00:41.048Z,11.15
2023-01-08T12:03:40.744Z,10.20
2023-01-08T12:06:43.453Z,10.60
2023-01-08T12:09:20.185Z,10.73
2023-01-08T12:12:06.479Z,11.20
2023-01-08T12:14:54.863Z,10.57
2023-01-08T12:18:04.164Z,10.90
2023-01-08T12:20:42.634Z,10.73
2023-01-08T12:23:45.361Z,11.48
2023-01-08T12:26:36.721Z,12.00
2023-01-08T12:29:45.738Z,12.07
2023-01-08T12:32:24.907Z,12.15
2023-01-08T12:35:06.083Z,13.40
2023-01-08T12:37:46.374Z,13.40
2023-01-08T12:40:34.830Z,14.30
2023-01-08T12:43:09.430Z,13.93
2023-01-08T12:45:41.367Z,14.00
2023-01-08T12:48:15.498Z,13.95
2023-01-08T12:50:57.566Z,14.32
2023-01-08T12:53:39.043Z,14.65
2023-01-08T12:56:16.455Z,14.68
2023-01-08T12:58:46.668Z,14.10
2023-01-08T13:01:30.235Z,14.95
2023-01-08T13:03:59.388Z,14.07
2023-01-08T13:06:27.604Z,14.50
2023-01-08T13:08:56.568Z,15.82
2023-01-08T13:11:28.753Z,14.55
2023-01-08T13:14:09.106Z,14.27
2023-01-08T13:16:42.086Z,14.18
2023-01-08T13:19:25.438Z,13.57
2023-01-08T13:21:55.250Z,13.50
2023-01-08T13:24:41.240Z,13.40
2023-01-08T13:27:17.574Z,13.30
2023-01-08T13:29:49.852Z,14.18
2023-01-08T13:32:27.851Z,13.32
2023-01-08T13:35:16.917Z,13.23
2023-01-08T13:37:49.575Z,12.73
2023-01-08T13:40:56.885Z,12.93
2023-01-08T13:43:42.193Z,12.85
2023-01-08T13:46:17.775Z,14.18
2023-01-08T13:49:05.406Z,13.05
2023-01-08T13:51:39.071Z,12.75
2023-01-08T13:54:13.131Z,13.00
2023-01-08T13:56:42.557Z,13.10
2023-01-08T13:59:37.164Z,13.43
2023-01-08T14:02:21.262Z,13.00
2023-01-08T14:04:52.785Z,13.15
2023-01-08T14:07:21.026Z,13.27
2023-01-08T14:09:48.310Z,14.18
2023-01-08T14:12:22.211Z,13.65
2023-01-08T14:14:54.405Z,13.40
2023-01-08T14:17:30.973Z,14.43
2023-01-08T14:19:59.373Z,13.80
2023-01-08T14:22:32.551Z,14.30
2023-01-08T14:25:07.953Z,14.30
2023-01-08T14:27:38.357Z,14.25
2023-01-08T14:30:16.476Z,13.93
2023-01-08T14:32:45.321Z,12.93
2023-01-08T14:35:18.340Z,14.18
2023-01-08T14:37:45.483Z,12.90
2023-01-08T14:40:17.217Z,13.98
2023-01-08T14:42:53.689Z,12.93
2023-01-08T14:45:26.714Z,12.93
2023-01-08T14:48:00.362Z,13.77
2023-01-08T14:50:35.085Z,13.40
2023-01-08T14:53:25.219Z,13.77
2023-01-08T14:55:55.631Z,13.63
2023-01-08T14:58:25.915Z,13.68
2023-01-08T15:01:07.780Z,13.60
2023-01-08T15:03:43.686Z,13.50
2023-01-08T15:06:12.237Z,13.32
2023-01-08T15:08:44.187Z,13.35
2023-01-08T15:11:49.955Z,13.23
2023-01-08T15:14:23.869Z,12.48
2023-01-08T15:16:55.685Z,13.57
2023-01-08T15:19:27.423Z,13.68
2023-01-08T15:21:57.879Z,13.40
2023-01-08T15:24:29.626Z,13.95
2023-01-08T15:26:57.849Z,14.02
2023-01-08T15:29:33.876Z,12.98
2023-01-08T15:32:16.258Z,13.13
2023-01-08T15:34:44.649Z,13.38
2023-01-08T15:37:13.760Z,12.57
2023-01-08T15:39:41.235Z,12.50
2023-01-08T15:42:41.850Z,13.70
2023-01-08T15:45:33.848Z,12.85
2023-01-08T15:48:01.042Z,13.00
2023-01-08T15:50:29.475Z,13.68
2023-01-08T15:52:57.594Z,13.75
2023-01-08T15:55:25.272Z,13.98
2023-01-08T15:57:53.232Z,13.52
2023-01-08T16:00:22.913Z,13.30
2023-01-08T16:02:54.420Z,12.90
2023-01-08T16:05:24.493Z,13.75
2023-01-08T16:07:54.229Z,12.82
2023-01-08T16:10:21.640Z,13.35
2023-01-08T16:12:49.325Z,12.48
2023-01-08T16:15:16.917Z,13.85
2023-01-08T16:17:44.810Z,13.05
2023-01-08T16:20:13.445Z,13.30
2023-01-08T16:22:41.429Z,12.77
2023-01-08T16:25:09.486Z,13.45
2023-01-08T16:27:38.697Z,13.35
2023-01-08T16:30:08.043Z,12.63
2023-01-08T16:32:35.534Z,13.25
2023-01-08T16:35:02.643Z,12.73
2023-01-08T16:37:31.266Z,13.32
2023-01-08T16:39:58.607Z,12.85
2023-01-08T16:42:25.821Z,13.15
2023-01-08T16:44:52.987Z,13.45
2023-01-08T16:47:20.150Z,13.20
2023-01-08T16:49:50.423Z,12.93
2023-01-08T16:52:18.092Z,12.57
2023-01-08T16:54:46.302Z,11.90
2023-01-08T16:57:13.747Z,12.65
2023-01-08T16:59:42.570Z,12.07
2023-01-08T17:02:10.805Z,12.77
2023-01-08T17:04:38.077Z,12.65
2023-01-08T17:07:05.933Z,13.05
2023-01-08T17:09:33.312Z,12.73
2023-01-08T17:12:00.514Z,12.27
2023-01-08T17:14:27.600Z,13.30
2023-01-08T17:16:54.852Z,12.43
2023-01-08T17:19:22.405Z,12.65
2023-01-08T17:21:53.562Z,13.50
2023-01-08T17:24:20.933Z,13.25
2023-01-08T17:26:48.019Z,13.80
2023-01-08T17:29:15.134Z,14.48
2023-01-08T17:31:42.670Z,14.35
2023-01-08T17:34:13.810Z,14.82
2023-01-08T17:36:41.501Z,14.15
2023-01-08T17:39:09.944Z,14.73
2023-01-08T17:41:55.390Z,14.35
2023-01-08T17:44:23.167Z,13.60
2023-01-08T17:46:50.482Z,12.85
2023-01-08T17:49:18.252Z,13.82
2023-01-08T17:51:46.132Z,12.90
2023-01-08T17:54:15.456Z,13.65
2023-01-08T17:56:43.340Z,14.52
2023-01-08T17:59:16.108Z,14.00
2023-01-08T18:01:45.410Z,14.30
2023-01-08T18:04:14.549Z,13.88
2023-01-08T18:06:42.687Z,14.50
2023-01-08T18:09:12.399Z,14.38
2023-01-08T18:11:45.475Z,14.55
2023-01-08T18:14:13.634Z,14.50
2023-01-08T18:16:45.917Z,14.52
2023-01-08T18:19:15.931Z,14.60
2023-01-08T18:21:47.043Z,14.90
2023-01-08T18:24:15.661Z,13.50
2023-01-08T18:26:43.378Z,13.02
2023-01-08T18:29:10.528Z,13.82
2023-01-08T18:31:38.096Z,14.30
2023-01-08T18:34:05.728Z,14.27
2023-01-08T18:36:33.050Z,13.65
2023-01-08T18:39:00.471Z,13.35
2023-01-08T18:41:45.882Z,12.55
2023-01-08T18:46:40.127Z,11.82
2023-01-08T18:49:07.559Z,11.70
2023-01-08T18:51:35.152Z,11.50
2023-01-08T18:54:04.420Z,12.10
2023-01-08T18:56:34.043Z,12.43
2023-01-08T18:59:02.185Z,13.18
2023-01-08T19:01:30.006Z,12.68
2023-01-08T19:03:57.502Z,12.27
2023-01-08T19:06:25.106Z,12.60
2023-01-08T19:08:52.827Z,13.85
2023-01-08T19:11:20.113Z,13.55
2023-01-08T19:13:47.271Z,13.48
2023-01-08T19:16:18.547Z,12.20
2023-01-08T19:18:45.872Z,12.82
2023-01-08T19:21:14.806Z,12.63
2023-01-08T19:23:42.148Z,11.73
2023-01-08T19:26:09.950Z,13.52
2023-01-08T19:28:37.130Z,12.95
2023-01-08T19:31:04.377Z,12.55
2023-01-08T19:33:32.241Z,12.65
2023-01-08T19:36:11.224Z,12.80
2023-01-08T19:38:40.386Z,12.50
2023-01-08T19:41:31.498Z,14.68
2023-01-08T19:43:59.603Z,16.73
2023-01-08T19:46:28.664Z,15.45
2023-01-08T19:49:00.562Z,15.10
2023-01-08T19:51:29.625Z,14.82
2023-01-08T19:53:58.505Z,13.60
2023-01-08T19:56:26.269Z,13.00
2023-01-08T19:58:54.738Z,12.93
2023-01-08T20:01:27.547Z,12.98
2023-01-08T20:03:56.396Z,12.65
2023-01-08T20:06:26.230Z,12.80
2023-01-08T20:08:58.368Z,13.57
2023-01-08T20:11:26.840Z,12.73
2023-01-08T20:13:55.991Z,13.18
2023-01-08T20:16:24.639Z,13.05
2023-01-08T20:18:56.780Z,13.43
2023-01-08T20:21:24.427Z,13.32
2023-01-08T20:24:15.503Z,13.88
2023-01-08T20:26:45.757Z,12.88
2023-01-08T20:29:14.660Z,13.45
2023-01-08T20:31:44.998Z,13.10
2023-01-08T20:34:18.005Z,13.65
2023-01-08T20:36:45.654Z,13.50
2023-01-08T20:39:15.332Z,12.98
2023-01-08T20:41:50.196Z,13.02
2023-01-08T20:44:29.805Z,12.60
2023-01-08T20:46:58.310Z,13.13
2023-01-08T20:49:26.926Z,12.70
2023-01-08T20:51:59.245Z,13.15
2023-01-08T20:54:27.710Z,13.48
2023-01-08T20:56:59.739Z,13.18
2023-01-08T20:59:27.696Z,13.18
2023-01-08T21:01:55.197Z,13.30
2023-01-08T21:04:23.668Z,13.57
2023-01-08T21:06:51.164Z,13.57
2023-01-08T21:09:18.482Z,12.48
2023-01-08T21:11:45.777Z,13.15
2023-01-08T21:14:13.101Z,12.63
2023-01-08T21:16:40.768Z,13.43
2023-01-08T21:19:11.801Z,12.57
2023-01-08T21:21:40.958Z,12.95
2023-01-08T21:24:11.854Z,12.90
2023-01-08T21:26:39.727Z,13.57
2023-01-08T21:29:08.134Z,13.20
2023-01-08T21:31:36.833Z,12.52
2023-01-08T21:34:06.314Z,12.57
2023-01-08T21:36:33.610Z,12.73
2023-01-08T21:39:02.059Z,13.77
2023-01-08T21:41:48.707Z,13.38
2023-01-08T21:44:40.515Z,12.48
2023-01-08T21:47:15.759Z,13.23
2023-01-08T21:49:44.023Z,12.93
2023-01-08T21:52:30.052Z,14.32
2023-01-08T21:54:58.361Z,13.63
2023-01-08T21:57:29.792Z,12.85
2023-01-08T21:59:57.155Z,12.98
2023-01-08T22:02:24.952Z,12.18
2023-01-08T22:04:55.389Z,12.65
2023-01-08T22:07:23.114Z,11.80
2023-01-08T22:09:50.275Z,12.02
2023-01-08T22:12:17.734Z,11.55
2023-01-08T22:14:44.959Z,11.13
2023-01-08T22:17:12.570Z,11.70
2023-01-08T22:19:41.022Z,11.55
2023-01-08T22:22:10.669Z,12.05
2023-01-08T22:24:39.594Z,11.38
2023-01-08T22:27:08.732Z,11.73
2023-01-08T22:29:37.555Z,12.27
2023-01-08T22:32:05.807Z,11.73
2023-01-08T22:34:34.852Z,11.50
2023-01-08T22:37:02.474Z,11.48
2023-01-08T22:39:29.891Z,11.15
2023-01-08T22:41:57.511Z,10.85
2023-01-08T22:44:26.146Z,11.43
2023-01-08T22:46:53.240Z,10.90
2023-01-08T22:49:20.379Z,10.68
2023-01-08T22:51:47.571Z,10.38
2023-01-08T22:54:17.367Z,10.82
2023-01-08T22:56:44.594Z,10.15
2023-01-08T22:59:11.750Z,10.07
2023-01-08T23:01:40.403Z,10.80
2023-01-08T23:04:07.807Z,10.00
2023-01-08T23:06:35.183Z,10.95
2023-01-08T23:09:02.341Z,10.07
2023-01-08T23:11:29.964Z,10.63
2023-01-08T23:13:57.161Z,10.10
2023-01-08T23:16:25.644Z,9.27
2023-01-08T23:18:54.338Z,10.40
2023-01-08T23:21:24.874Z,9.98
2023-01-08T23:23:52.646Z,11.25
2023-01-08T23:26:26.861Z,11.25
2023-01-08T23:28:55.689Z,10.98
2023-01-08T23:31:26.638Z,11.30
2023-01-08T23:33:54.801Z,10.90
2023-01-08T23:36:23.761Z,11.23
2023-01-08T23:38:53.199Z,11.10
2023-01-08T23:41:23.520Z,11.23
2023-01-08T23:43:50.640Z,10.98
2023-01-08T23:46:18.065Z,10.77
2023-01-08T23:48:45.220Z,10.88
2023-01-08T23:51:12.515Z,11.02
2023-01-08T23:53:39.714Z,11.13
2023-01-08T23:56:07.935Z,9.60
2023-01-08T23:58:35.518Z,10.30
